sensor_id;sensor_type;location;lat;lon;timestamp;pressure;altitude;pressure_sealevel;temperature;humidity
69127;BME280;56688;50.234;19.292;2022-09-13T00:01:26;98448.85;;;8.25;81.37
69127;BME280;56688;50.234;19.292;2022-09-13T00:03:53;98448.48;;;8.22;81.22
69127;BME280;56688;50.234;19.292;2022-09-13T00:06:21;98451.90;;;8.19;80.94
69127;BME280;56688;50.234;19.292;2022-09-13T00:08:48;98451.20;;;8.15;80.51
69127;BME280;56688;50.234;19.292;2022-09-13T00:11:16;98448.77;;;8.12;80.18
69127;BME280;56688;50.234;19.292;2022-09-13T00:13:44;98446.42;;;8.06;80.04
69127;BME280;56688;50.234;19.292;2022-09-13T00:16:12;98446.92;;;8.00;79.42
69127;BME280;56688;50.234;19.292;2022-09-13T00:18:40;98446.86;;;7.94;79.55
69127;BME280;56688;50.234;19.292;2022-09-13T00:21:11;98441.13;;;7.90;79.36
69127;BME280;56688;50.234;19.292;2022-09-13T00:23:39;98438.39;;;7.86;78.78
69127;BME280;56688;50.234;19.292;2022-09-13T00:26:10;98438.11;;;7.80;78.95
69127;BME280;56688;50.234;19.292;2022-09-13T00:28:38;98438.20;;;7.75;78.99
69127;BME280;56688;50.234;19.292;2022-09-13T00:31:06;98440.52;;;7.70;78.98
69127;BME280;56688;50.234;19.292;2022-09-13T00:33:34;98442.62;;;7.64;79.31
69127;BME280;56688;50.234;19.292;2022-09-13T00:36:04;98436.33;;;7.60;79.69
69127;BME280;56688;50.234;19.292;2022-09-13T00:38:34;98435.80;;;7.57;79.27
69127;BME280;56688;50.234;19.292;2022-09-13T00:41:04;98435.02;;;7.53;79.55
69127;BME280;56688;50.234;19.292;2022-09-13T00:46:32;98430.00;;;7.51;79.64
69127;BME280;56688;50.234;19.292;2022-09-13T00:49:13;98430.60;;;7.49;79.38
69127;BME280;56688;50.234;19.292;2022-09-13T00:51:46;98426.30;;;7.43;79.14
69127;BME280;56688;50.234;19.292;2022-09-13T00:54:15;98428.89;;;7.41;79.63
69127;BME280;56688;50.234;19.292;2022-09-13T00:56:47;98427.05;;;7.37;79.18
69127;BME280;56688;50.234;19.292;2022-09-13T00:59:22;98422.73;;;7.33;79.50
69127;BME280;56688;50.234;19.292;2022-09-13T01:01:53;98424.47;;;7.32;79.52
69127;BME280;56688;50.234;19.292;2022-09-13T01:04:24;98425.10;;;7.31;79.59
69127;BME280;56688;50.234;19.292;2022-09-13T01:06:54;98424.81;;;7.30;79.68
69127;BME280;56688;50.234;19.292;2022-09-13T01:09:23;98421.42;;;7.29;79.92
69127;BME280;56688;50.234;19.292;2022-09-13T01:11:55;98424.41;;;7.25;79.92
69127;BME280;56688;50.234;19.292;2022-09-13T01:14:26;98422.76;;;7.23;80.24
69127;BME280;56688;50.234;19.292;2022-09-13T01:16:53;98420.21;;;7.22;80.79
69127;BME280;56688;50.234;19.292;2022-09-13T01:19:20;98421.36;;;7.22;80.95
69127;BME280;56688;50.234;19.292;2022-09-13T01:28:00;98427.59;;;7.27;80.63
69127;BME280;56688;50.234;19.292;2022-09-13T01:30:36;98430.25;;;7.25;80.80
69127;BME280;56688;50.234;19.292;2022-09-13T01:33:26;98430.37;;;7.23;80.88
69127;BME280;56688;50.234;19.292;2022-09-13T01:36:20;98430.02;;;7.21;81.17
69127;BME280;56688;50.234;19.292;2022-09-13T01:39:08;98423.87;;;7.21;81.01
69127;BME280;56688;50.234;19.292;2022-09-13T01:47:23;98417.67;;;7.17;80.13
69127;BME280;56688;50.234;19.292;2022-09-13T01:57:51;98404.98;;;6.96;80.76
69127;BME280;56688;50.234;19.292;2022-09-13T02:00:19;98404.17;;;6.92;80.52
69127;BME280;56688;50.234;19.292;2022-09-13T02:02:48;98405.97;;;6.90;81.04
69127;BME280;56688;50.234;19.292;2022-09-13T02:05:43;98404.73;;;6.89;81.31
69127;BME280;56688;50.234;19.292;2022-09-13T02:08:17;98402.18;;;6.80;81.34
69127;BME280;56688;50.234;19.292;2022-09-13T02:10:48;98397.77;;;6.76;81.21
69127;BME280;56688;50.234;19.292;2022-09-13T02:13:20;98399.55;;;6.75;81.44
69127;BME280;56688;50.234;19.292;2022-09-13T02:15:53;98394.77;;;6.73;81.77
69127;BME280;56688;50.234;19.292;2022-09-13T02:18:30;98389.57;;;6.72;81.38
69127;BME280;56688;50.234;19.292;2022-09-13T02:21:07;98386.65;;;6.71;81.09
69127;BME280;56688;50.234;19.292;2022-09-13T02:23:40;98386.98;;;6.72;81.24
69127;BME280;56688;50.234;19.292;2022-09-13T02:26:11;98388.01;;;6.72;81.01
69127;BME280;56688;50.234;19.292;2022-09-13T02:28:46;98391.39;;;6.72;81.24
69127;BME280;56688;50.234;19.292;2022-09-13T02:31:19;98389.67;;;6.71;81.80
69127;BME280;56688;50.234;19.292;2022-09-13T02:33:55;98386.28;;;6.64;81.34
69127;BME280;56688;50.234;19.292;2022-09-13T02:36:27;98383.16;;;6.56;81.69
69127;BME280;56688;50.234;19.292;2022-09-13T02:38:59;98376.16;;;6.52;81.90
69127;BME280;56688;50.234;19.292;2022-09-13T02:44:14;98377.95;;;6.57;82.01
69127;BME280;56688;50.234;19.292;2022-09-13T02:46:48;98374.23;;;6.60;82.26
69127;BME280;56688;50.234;19.292;2022-09-13T02:49:24;98371.78;;;6.63;82.23
69127;BME280;56688;50.234;19.292;2022-09-13T02:54:53;98364.51;;;6.58;81.43
69127;BME280;56688;50.234;19.292;2022-09-13T03:00:02;98362.23;;;6.53;80.96
69127;BME280;56688;50.234;19.292;2022-09-13T03:02:31;98361.30;;;6.50;81.33
69127;BME280;56688;50.234;19.292;2022-09-13T03:05:00;98360.70;;;6.43;81.56
69127;BME280;56688;50.234;19.292;2022-09-13T03:07:27;98354.59;;;6.40;81.63
69127;BME280;56688;50.234;19.292;2022-09-13T03:09:58;98356.71;;;6.40;81.86
69127;BME280;56688;50.234;19.292;2022-09-13T03:15:23;98351.64;;;6.36;81.71
69127;BME280;56688;50.234;19.292;2022-09-13T03:26:07;98352.50;;;6.33;82.43
69127;BME280;56688;50.234;19.292;2022-09-13T03:34:18;98341.44;;;6.38;82.90
69127;BME280;56688;50.234;19.292;2022-09-13T03:36:53;98341.07;;;6.36;82.89
69127;BME280;56688;50.234;19.292;2022-09-13T03:42:15;98338.47;;;6.42;83.34
69127;BME280;56688;50.234;19.292;2022-09-13T03:44:46;98340.48;;;6.47;83.44
69127;BME280;56688;50.234;19.292;2022-09-13T03:47:15;98334.98;;;6.53;83.56
69127;BME280;56688;50.234;19.292;2022-09-13T03:49:43;98337.71;;;6.60;83.48
69127;BME280;56688;50.234;19.292;2022-09-13T03:52:11;98340.25;;;6.68;83.79
69127;BME280;56688;50.234;19.292;2022-09-13T03:54:38;98338.59;;;6.72;83.71
69127;BME280;56688;50.234;19.292;2022-09-13T03:59:36;98336.19;;;6.79;83.33
69127;BME280;56688;50.234;19.292;2022-09-13T04:02:05;98333.66;;;6.85;83.24
69127;BME280;56688;50.234;19.292;2022-09-13T04:04:36;98333.52;;;6.90;83.11
69127;BME280;56688;50.234;19.292;2022-09-13T04:07:02;98335.58;;;6.94;82.95
69127;BME280;56688;50.234;19.292;2022-09-13T04:09:30;98328.77;;;6.96;82.68
69127;BME280;56688;50.234;19.292;2022-09-13T04:11:57;98327.77;;;6.98;82.81
69127;BME280;56688;50.234;19.292;2022-09-13T04:14:24;98324.86;;;6.96;82.07
69127;BME280;56688;50.234;19.292;2022-09-13T04:16:54;98326.97;;;6.95;81.83
69127;BME280;56688;50.234;19.292;2022-09-13T04:19:21;98326.27;;;6.95;82.17
69127;BME280;56688;50.234;19.292;2022-09-13T04:21:49;98329.71;;;6.96;81.65
69127;BME280;56688;50.234;19.292;2022-09-13T04:24:17;98328.42;;;6.96;81.38
69127;BME280;56688;50.234;19.292;2022-09-13T04:26:48;98327.19;;;6.96;81.46
69127;BME280;56688;50.234;19.292;2022-09-13T04:29:17;98332.73;;;6.96;81.07
69127;BME280;56688;50.234;19.292;2022-09-13T04:31:44;98329.04;;;6.93;80.79
69127;BME280;56688;50.234;19.292;2022-09-13T04:34:11;98335.09;;;6.89;80.75
69127;BME280;56688;50.234;19.292;2022-09-13T04:36:38;98335.31;;;6.87;80.70
69127;BME280;56688;50.234;19.292;2022-09-13T04:39:05;98331.80;;;6.87;80.55
69127;BME280;56688;50.234;19.292;2022-09-13T04:41:33;98326.67;;;6.88;80.42
69127;BME280;56688;50.234;19.292;2022-09-13T04:44:01;98327.98;;;6.90;80.59
69127;BME280;56688;50.234;19.292;2022-09-13T04:46:28;98328.33;;;6.91;80.89
69127;BME280;56688;50.234;19.292;2022-09-13T04:48:55;98331.11;;;6.92;80.63
69127;BME280;56688;50.234;19.292;2022-09-13T04:51:22;98332.36;;;6.91;80.69
69127;BME280;56688;50.234;19.292;2022-09-13T04:53:53;98337.69;;;6.91;80.89
69127;BME280;56688;50.234;19.292;2022-09-13T04:56:22;98334.73;;;6.93;80.85
69127;BME280;56688;50.234;19.292;2022-09-13T04:58:50;98338.58;;;6.96;80.91
69127;BME280;56688;50.234;19.292;2022-09-13T05:01:17;98340.61;;;7.00;81.45
69127;BME280;56688;50.234;19.292;2022-09-13T05:03:44;98342.36;;;7.07;81.83
69127;BME280;56688;50.234;19.292;2022-09-13T05:06:13;98343.03;;;7.15;81.58
69127;BME280;56688;50.234;19.292;2022-09-13T05:08:40;98340.83;;;7.25;81.63
69127;BME280;56688;50.234;19.292;2022-09-13T05:11:07;98338.91;;;7.35;81.77
69127;BME280;56688;50.234;19.292;2022-09-13T05:13:35;98333.14;;;7.42;81.92
69127;BME280;56688;50.234;19.292;2022-09-13T05:16:05;98330.91;;;7.50;81.93
69127;BME280;56688;50.234;19.292;2022-09-13T05:18:34;98332.77;;;7.59;82.27
69127;BME280;56688;50.234;19.292;2022-09-13T05:21:03;98330.22;;;7.69;82.39
69127;BME280;56688;50.234;19.292;2022-09-13T05:23:31;98334.71;;;7.82;82.22
69127;BME280;56688;50.234;19.292;2022-09-13T05:26:00;98334.70;;;7.97;82.16
69127;BME280;56688;50.234;19.292;2022-09-13T05:28:30;98336.14;;;8.10;81.82
69127;BME280;56688;50.234;19.292;2022-09-13T05:31:00;98341.31;;;8.22;82.04
69127;BME280;56688;50.234;19.292;2022-09-13T05:33:30;98337.38;;;8.33;81.64
69127;BME280;56688;50.234;19.292;2022-09-13T05:35:57;98339.55;;;8.45;81.55
69127;BME280;56688;50.234;19.292;2022-09-13T05:38:25;98340.20;;;8.59;81.71
69127;BME280;56688;50.234;19.292;2022-09-13T05:40:53;98337.61;;;8.75;81.34
69127;BME280;56688;50.234;19.292;2022-09-13T05:43:24;98338.14;;;8.92;81.32
69127;BME280;56688;50.234;19.292;2022-09-13T05:48:29;98338.40;;;9.27;80.86
69127;BME280;56688;50.234;19.292;2022-09-13T05:50:56;98337.07;;;9.40;80.77
69127;BME280;56688;50.234;19.292;2022-09-13T05:53:29;98339.86;;;9.57;80.53
69127;BME280;56688;50.234;19.292;2022-09-13T05:55:57;98341.89;;;9.74;80.38
69127;BME280;56688;50.234;19.292;2022-09-13T05:58:24;98341.73;;;9.93;80.32
69127;BME280;56688;50.234;19.292;2022-09-13T06:00:53;98336.33;;;10.12;80.25
69127;BME280;56688;50.234;19.292;2022-09-13T06:03:22;98337.38;;;10.33;80.50
69127;BME280;56688;50.234;19.292;2022-09-13T06:05:54;98339.73;;;10.54;80.14
69127;BME280;56688;50.234;19.292;2022-09-13T06:08:22;98333.02;;;10.72;79.81
69127;BME280;56688;50.234;19.292;2022-09-13T06:10:54;98331.44;;;10.91;79.56
69127;BME280;56688;50.234;19.292;2022-09-13T06:13:23;98330.33;;;11.14;79.26
69127;BME280;56688;50.234;19.292;2022-09-13T06:15:50;98329.60;;;11.39;78.98
69127;BME280;56688;50.234;19.292;2022-09-13T06:18:18;98330.64;;;11.64;78.91
69127;BME280;56688;50.234;19.292;2022-09-13T06:20:45;98334.19;;;11.90;78.40
69127;BME280;56688;50.234;19.292;2022-09-13T06:23:12;98335.66;;;12.16;77.59
69127;BME280;56688;50.234;19.292;2022-09-13T06:25:40;98332.09;;;12.41;77.65
69127;BME280;56688;50.234;19.292;2022-09-13T06:28:08;98330.34;;;12.66;77.32
69127;BME280;56688;50.234;19.292;2022-09-13T06:30:35;98327.70;;;12.91;76.95
69127;BME280;56688;50.234;19.292;2022-09-13T06:33:02;98329.98;;;13.18;76.29
69127;BME280;56688;50.234;19.292;2022-09-13T06:35:29;98330.98;;;13.44;75.58
69127;BME280;56688;50.234;19.292;2022-09-13T06:37:57;98332.97;;;13.70;75.22
69127;BME280;56688;50.234;19.292;2022-09-13T06:40:24;98331.02;;;13.93;75.00
69127;BME280;56688;50.234;19.292;2022-09-13T06:42:51;98334.08;;;14.10;74.61
69127;BME280;56688;50.234;19.292;2022-09-13T06:45:18;98333.84;;;14.23;74.70
69127;BME280;56688;50.234;19.292;2022-09-13T06:47:45;98332.08;;;14.40;74.26
69127;BME280;56688;50.234;19.292;2022-09-13T06:50:12;98332.20;;;14.56;73.58
69127;BME280;56688;50.234;19.292;2022-09-13T06:52:39;98329.21;;;14.74;73.19
69127;BME280;56688;50.234;19.292;2022-09-13T06:55:06;98328.72;;;14.94;72.38
69127;BME280;56688;50.234;19.292;2022-09-13T06:57:38;98327.86;;;15.06;71.47
69127;BME280;56688;50.234;19.292;2022-09-13T07:00:05;98327.23;;;15.20;71.51
69127;BME280;56688;50.234;19.292;2022-09-13T07:02:32;98322.85;;;15.39;72.33
69127;BME280;56688;50.234;19.292;2022-09-13T07:04:59;98323.19;;;15.59;70.56
69127;BME280;56688;50.234;19.292;2022-09-13T07:07:26;98323.77;;;15.65;69.25
69127;BME280;56688;50.234;19.292;2022-09-13T07:09:53;98319.35;;;15.77;68.74
69127;BME280;56688;50.234;19.292;2022-09-13T07:12:20;98312.44;;;15.90;68.41
69127;BME280;56688;50.234;19.292;2022-09-13T07:14:46;98313.62;;;16.03;67.71
69127;BME280;56688;50.234;19.292;2022-09-13T07:17:13;98310.30;;;16.09;67.11
69127;BME280;56688;50.234;19.292;2022-09-13T07:19:40;98311.95;;;16.13;67.37
69127;BME280;56688;50.234;19.292;2022-09-13T07:22:07;98305.46;;;16.27;67.39
69127;BME280;56688;50.234;19.292;2022-09-13T07:24:34;98301.48;;;16.41;66.69
69127;BME280;56688;50.234;19.292;2022-09-13T07:27:01;98302.69;;;16.57;66.57
69127;BME280;56688;50.234;19.292;2022-09-13T07:29:28;98298.22;;;16.76;65.94
69127;BME280;56688;50.234;19.292;2022-09-13T07:31:55;98303.69;;;16.95;66.40
69127;BME280;56688;50.234;19.292;2022-09-13T07:34:25;98300.67;;;17.14;65.39
69127;BME280;56688;50.234;19.292;2022-09-13T07:36:53;98298.75;;;17.37;64.56
69127;BME280;56688;50.234;19.292;2022-09-13T07:39:20;98301.39;;;17.62;63.88
69127;BME280;56688;50.234;19.292;2022-09-13T07:41:49;98300.86;;;17.79;63.07
69127;BME280;56688;50.234;19.292;2022-09-13T07:44:17;98298.89;;;17.86;62.59
69127;BME280;56688;50.234;19.292;2022-09-13T07:46:44;98301.42;;;18.08;62.59
69127;BME280;56688;50.234;19.292;2022-09-13T07:49:13;98299.17;;;18.44;63.26
69127;BME280;56688;50.234;19.292;2022-09-13T07:51:42;98293.60;;;18.81;61.74
69127;BME280;56688;50.234;19.292;2022-09-13T07:54:13;98288.89;;;18.92;60.00
69127;BME280;56688;50.234;19.292;2022-09-13T07:56:40;98294.02;;;18.97;59.39
69127;BME280;56688;50.234;19.292;2022-09-13T07:59:12;98290.73;;;19.09;59.31
69127;BME280;56688;50.234;19.292;2022-09-13T08:01:41;98287.98;;;19.42;59.02
69127;BME280;56688;50.234;19.292;2022-09-13T08:04:11;98285.92;;;19.76;57.84
69127;BME280;56688;50.234;19.292;2022-09-13T08:06:39;98286.93;;;20.15;56.30
69127;BME280;56688;50.234;19.292;2022-09-13T08:09:09;98282.84;;;20.60;55.86
69127;BME280;56688;50.234;19.292;2022-09-13T08:11:39;98277.51;;;20.99;53.52
69127;BME280;56688;50.234;19.292;2022-09-13T08:14:09;98272.35;;;21.24;52.74
69127;BME280;56688;50.234;19.292;2022-09-13T08:16:36;98276.11;;;21.62;51.33
69127;BME280;56688;50.234;19.292;2022-09-13T08:19:05;98276.51;;;21.97;50.51
69127;BME280;56688;50.234;19.292;2022-09-13T08:21:36;98275.62;;;22.15;49.96
69127;BME280;56688;50.234;19.292;2022-09-13T08:24:05;98272.21;;;22.30;50.15
69127;BME280;56688;50.234;19.292;2022-09-13T08:26:32;98277.67;;;22.43;50.41
69127;BME280;56688;50.234;19.292;2022-09-13T08:29:03;98275.54;;;22.33;49.54
69127;BME280;56688;50.234;19.292;2022-09-13T08:31:31;98273.83;;;22.07;49.85
69127;BME280;56688;50.234;19.292;2022-09-13T08:33:58;98273.52;;;21.95;50.36
69127;BME280;56688;50.234;19.292;2022-09-13T08:36:26;98268.36;;;22.12;49.80
69127;BME280;56688;50.234;19.292;2022-09-13T08:38:56;98265.92;;;22.43;48.57
69127;BME280;56688;50.234;19.292;2022-09-13T08:44:09;98263.36;;;22.63;47.81
69127;BME280;56688;50.234;19.292;2022-09-13T08:46:44;98260.31;;;22.47;47.84
69127;BME280;56688;50.234;19.292;2022-09-13T08:49:29;98256.88;;;22.45;48.99
69127;BME280;56688;50.234;19.292;2022-09-13T08:52:02;98257.65;;;22.54;48.13
69127;BME280;56688;50.234;19.292;2022-09-13T08:54:31;98249.86;;;22.68;48.33
69127;BME280;56688;50.234;19.292;2022-09-13T08:57:15;98246.70;;;23.03;48.55
69127;BME280;56688;50.234;19.292;2022-09-13T09:02:26;98239.98;;;23.35;45.85
69127;BME280;56688;50.234;19.292;2022-09-13T09:05:05;98241.72;;;23.33;46.68
69127;BME280;56688;50.234;19.292;2022-09-13T09:07:44;98242.73;;;23.09;46.95
69127;BME280;56688;50.234;19.292;2022-09-13T09:10:16;98238.53;;;22.97;47.55
69127;BME280;56688;50.234;19.292;2022-09-13T09:12:48;98242.89;;;22.80;46.91
69127;BME280;56688;50.234;19.292;2022-09-13T09:15:21;98242.29;;;22.74;47.71
69127;BME280;56688;50.234;19.292;2022-09-13T09:17:55;98241.58;;;22.81;47.97
69127;BME280;56688;50.234;19.292;2022-09-13T09:20:27;98241.23;;;22.85;47.20
69127;BME280;56688;50.234;19.292;2022-09-13T09:23:02;98236.27;;;22.88;47.88
69127;BME280;56688;50.234;19.292;2022-09-13T09:25:30;98231.73;;;22.89;46.43
69127;BME280;56688;50.234;19.292;2022-09-13T09:27:58;98228.63;;;22.79;45.78
69127;BME280;56688;50.234;19.292;2022-09-13T09:30:40;98231.61;;;22.51;46.66
69127;BME280;56688;50.234;19.292;2022-09-13T09:33:36;98233.08;;;22.21;46.49
69127;BME280;56688;50.234;19.292;2022-09-13T09:36:14;98231.20;;;22.11;47.88
69127;BME280;56688;50.234;19.292;2022-09-13T09:38:45;98227.79;;;22.04;47.75
69127;BME280;56688;50.234;19.292;2022-09-13T09:43:49;98216.85;;;21.81;48.46
69127;BME280;56688;50.234;19.292;2022-09-13T09:46:24;98214.77;;;21.73;49.26
69127;BME280;56688;50.234;19.292;2022-09-13T09:48:54;98211.86;;;21.76;49.25
69127;BME280;56688;50.234;19.292;2022-09-13T09:51:23;98210.52;;;21.75;47.33
69127;BME280;56688;50.234;19.292;2022-09-13T09:53:56;98211.80;;;21.67;46.70
69127;BME280;56688;50.234;19.292;2022-09-13T09:56:32;98210.09;;;21.59;47.90
69127;BME280;56688;50.234;19.292;2022-09-13T09:58:59;98202.04;;;21.58;47.89
69127;BME280;56688;50.234;19.292;2022-09-13T10:01:30;98202.07;;;21.51;46.97
69127;BME280;56688;50.234;19.292;2022-09-13T10:06:30;98198.17;;;21.13;48.32
69127;BME280;56688;50.234;19.292;2022-09-13T10:09:00;98192.40;;;21.11;49.26
69127;BME280;56688;50.234;19.292;2022-09-13T10:14:34;98176.67;;;21.48;49.20
69127;BME280;56688;50.234;19.292;2022-09-13T10:22:20;98162.94;;;21.72;47.69
69127;BME280;56688;50.234;19.292;2022-09-13T10:24:48;98162.47;;;21.83;47.58
69127;BME280;56688;50.234;19.292;2022-09-13T10:27:23;98167.33;;;21.94;45.86
69127;BME280;56688;50.234;19.292;2022-09-13T10:29:54;98167.70;;;21.88;45.94
69127;BME280;56688;50.234;19.292;2022-09-13T10:32:26;98172.48;;;21.86;46.02
69127;BME280;56688;50.234;19.292;2022-09-13T10:34:55;98172.58;;;21.79;45.30
69127;BME280;56688;50.234;19.292;2022-09-13T10:37:27;98175.39;;;21.72;46.84
69127;BME280;56688;50.234;19.292;2022-09-13T10:40:03;98174.63;;;21.74;46.84
69127;BME280;56688;50.234;19.292;2022-09-13T10:42:34;98167.70;;;21.93;47.18
69127;BME280;56688;50.234;19.292;2022-09-13T10:45:03;98165.44;;;22.06;46.74
69127;BME280;56688;50.234;19.292;2022-09-13T10:47:38;98160.27;;;22.06;46.25
69127;BME280;56688;50.234;19.292;2022-09-13T10:50:21;98163.35;;;21.99;47.28
69127;BME280;56688;50.234;19.292;2022-09-13T10:52:50;98163.84;;;21.92;47.56
69127;BME280;56688;50.234;19.292;2022-09-13T10:57:47;98157.73;;;21.78;47.75
69127;BME280;56688;50.234;19.292;2022-09-13T11:00:18;98157.29;;;21.78;47.72
69127;BME280;56688;50.234;19.292;2022-09-13T11:05:53;98147.23;;;21.92;47.26
69127;BME280;56688;50.234;19.292;2022-09-13T11:14:03;98130.13;;;22.47;47.01
69127;BME280;56688;50.234;19.292;2022-09-13T11:19:36;98133.75;;;22.18;45.88
69127;BME280;56688;50.234;19.292;2022-09-13T11:22:22;98128.27;;;22.02;46.77
69127;BME280;56688;50.234;19.292;2022-09-13T11:25:13;98125.46;;;22.09;47.50
69127;BME280;56688;50.234;19.292;2022-09-13T11:30:21;98112.85;;;22.28;45.74
69127;BME280;56688;50.234;19.292;2022-09-13T11:33:17;98110.36;;;22.43;45.35
69127;BME280;56688;50.234;19.292;2022-09-13T11:43:37;98089.54;;;22.36;45.95
69127;BME280;56688;50.234;19.292;2022-09-13T11:52:04;98077.70;;;22.96;44.20
69127;BME280;56688;50.234;19.292;2022-09-13T11:57:06;98066.98;;;22.83;44.76
69127;BME280;56688;50.234;19.292;2022-09-13T11:59:41;98058.86;;;22.91;43.36
69127;BME280;56688;50.234;19.292;2022-09-13T12:05:03;98048.08;;;22.85;41.29
69127;BME280;56688;50.234;19.292;2022-09-13T12:07:52;98045.90;;;22.87;42.17
69127;BME280;56688;50.234;19.292;2022-09-13T12:10:24;98046.11;;;22.94;42.59
69127;BME280;56688;50.234;19.292;2022-09-13T12:12:54;98042.93;;;22.96;42.78
69127;BME280;56688;50.234;19.292;2022-09-13T12:15:34;98041.47;;;22.91;44.31
69127;BME280;56688;50.234;19.292;2022-09-13T12:18:19;98035.51;;;22.81;43.30
69127;BME280;56688;50.234;19.292;2022-09-13T12:20:59;98029.14;;;22.62;43.87
69127;BME280;56688;50.234;19.292;2022-09-13T12:23:34;98024.92;;;22.34;45.39
69127;BME280;56688;50.234;19.292;2022-09-13T12:28:55;98017.19;;;21.70;44.92
69127;BME280;56688;50.234;19.292;2022-09-13T12:31:26;98020.17;;;21.48;46.23
69127;BME280;56688;50.234;19.292;2022-09-13T12:33:55;98023.90;;;21.31;46.74
69127;BME280;56688;50.234;19.292;2022-09-13T12:36:42;98014.20;;;21.06;47.81
69127;BME280;56688;50.234;19.292;2022-09-13T12:39:32;98015.77;;;20.99;47.50
69127;BME280;56688;50.234;19.292;2022-09-13T12:44:39;98014.77;;;20.79;47.96
69127;BME280;56688;50.234;19.292;2022-09-13T12:47:15;98010.40;;;20.72;48.76
69127;BME280;56688;50.234;19.292;2022-09-13T12:55:52;98001.54;;;20.83;49.26
69127;BME280;56688;50.234;19.292;2022-09-13T13:01:15;97998.36;;;21.41;48.37
69127;BME280;56688;50.234;19.292;2022-09-13T13:06:28;97995.65;;;22.30;46.74
69127;BME280;56688;50.234;19.292;2022-09-13T13:08:59;97993.23;;;22.80;47.13
69127;BME280;56688;50.234;19.292;2022-09-13T13:11:29;97991.60;;;23.42;44.98
69127;BME280;56688;50.234;19.292;2022-09-13T13:14:28;97989.11;;;23.93;42.26
69127;BME280;56688;50.234;19.292;2022-09-13T13:19:54;97987.88;;;23.73;41.83
69127;BME280;56688;50.234;19.292;2022-09-13T13:25:32;97981.30;;;24.06;42.40
69127;BME280;56688;50.234;19.292;2022-09-13T13:28:00;97974.77;;;24.64;42.15
69127;BME280;56688;50.234;19.292;2022-09-13T13:33:17;97955.34;;;25.41;39.68
69127;BME280;56688;50.234;19.292;2022-09-13T13:35:44;97954.05;;;25.92;39.12
69127;BME280;56688;50.234;19.292;2022-09-13T13:41:07;97954.02;;;26.39;36.99
69127;BME280;56688;50.234;19.292;2022-09-13T13:43:53;97956.50;;;26.41;37.53
69127;BME280;56688;50.234;19.292;2022-09-13T13:48:47;97952.15;;;26.53;36.89
69127;BME280;56688;50.234;19.292;2022-09-13T13:51:19;97951.31;;;26.14;36.53
69127;BME280;56688;50.234;19.292;2022-09-13T13:53:52;97948.54;;;25.56;37.65
69127;BME280;56688;50.234;19.292;2022-09-13T13:59:13;97952.18;;;24.49;38.94
69127;BME280;56688;50.234;19.292;2022-09-13T14:01:47;97944.83;;;23.96;40.20
69127;BME280;56688;50.234;19.292;2022-09-13T14:07:16;97948.74;;;23.19;42.83
69127;BME280;56688;50.234;19.292;2022-09-13T14:09:55;97945.87;;;23.08;42.84
69127;BME280;56688;50.234;19.292;2022-09-13T14:12:38;97941.11;;;22.94;43.42
69127;BME280;56688;50.234;19.292;2022-09-13T14:18:14;97930.77;;;22.47;45.60
69127;BME280;56688;50.234;19.292;2022-09-13T14:21:03;97932.45;;;22.36;46.66
69127;BME280;56688;50.234;19.292;2022-09-13T14:23:30;97925.77;;;22.18;46.01
69127;BME280;56688;50.234;19.292;2022-09-13T14:25:59;97924.05;;;21.96;46.80
69127;BME280;56688;50.234;19.292;2022-09-13T14:28:27;97921.42;;;21.78;47.66
69127;BME280;56688;50.234;19.292;2022-09-13T14:30:57;97914.77;;;21.60;48.51
69127;BME280;56688;50.234;19.292;2022-09-13T14:33:29;97914.34;;;21.44;47.97
69127;BME280;56688;50.234;19.292;2022-09-13T14:36:01;97911.83;;;21.22;49.02
69127;BME280;56688;50.234;19.292;2022-09-13T14:38:30;97918.11;;;21.06;49.25
69127;BME280;56688;50.234;19.292;2022-09-13T14:41:10;97917.27;;;20.86;49.21
69127;BME280;56688;50.234;19.292;2022-09-13T14:43:39;97918.53;;;20.68;50.34
69127;BME280;56688;50.234;19.292;2022-09-13T14:48:39;97913.34;;;20.44;51.37
69127;BME280;56688;50.234;19.292;2022-09-13T14:51:15;97911.17;;;20.35;51.50
69127;BME280;56688;50.234;19.292;2022-09-13T14:53:45;97910.65;;;20.25;51.66
69127;BME280;56688;50.234;19.292;2022-09-13T14:56:22;97909.92;;;20.22;52.65
69127;BME280;56688;50.234;19.292;2022-09-13T14:58:55;97911.60;;;20.23;52.71
69127;BME280;56688;50.234;19.292;2022-09-13T15:01:28;97909.40;;;20.26;53.11
69127;BME280;56688;50.234;19.292;2022-09-13T15:03:57;97906.61;;;20.34;53.42
69127;BME280;56688;50.234;19.292;2022-09-13T15:06:29;97905.17;;;20.39;53.26
69127;BME280;56688;50.234;19.292;2022-09-13T15:09:12;97899.48;;;20.43;52.69
69127;BME280;56688;50.234;19.292;2022-09-13T15:11:41;97896.53;;;20.46;53.50
69127;BME280;56688;50.234;19.292;2022-09-13T15:14:33;97889.92;;;20.50;53.11
69127;BME280;56688;50.234;19.292;2022-09-13T15:19:38;97882.74;;;20.46;52.78
69127;BME280;56688;50.234;19.292;2022-09-13T15:22:11;97878.64;;;20.41;54.07
69127;BME280;56688;50.234;19.292;2022-09-13T15:24:41;97880.45;;;20.33;52.86
69127;BME280;56688;50.234;19.292;2022-09-13T15:27:20;97882.14;;;20.21;53.27
69127;BME280;56688;50.234;19.292;2022-09-13T15:29:49;97880.92;;;20.12;54.64
69127;BME280;56688;50.234;19.292;2022-09-13T15:32:21;97881.11;;;20.05;54.06
69127;BME280;56688;50.234;19.292;2022-09-13T15:34:49;97877.05;;;19.99;54.42
69127;BME280;56688;50.234;19.292;2022-09-13T15:37:16;97882.73;;;19.94;54.22
69127;BME280;56688;50.234;19.292;2022-09-13T15:40:13;97878.31;;;19.88;54.52
69127;BME280;56688;50.234;19.292;2022-09-13T15:42:45;97880.88;;;19.80;54.34
69127;BME280;56688;50.234;19.292;2022-09-13T15:45:12;97883.27;;;19.73;55.34
69127;BME280;56688;50.234;19.292;2022-09-13T15:47:39;97882.86;;;19.69;55.45
69127;BME280;56688;50.234;19.292;2022-09-13T15:50:08;97883.25;;;19.62;55.22